sensor_id;sensor_type;location;lat;lon;timestamp;temperature;humidity
29345;DHT22;16339;48.748;2.222;2023-08-12T06:55:52;24.00;98.50
29345;DHT22;16339;48.748;2.222;2023-08-12T06:58:41;24.00;98.40
29345;DHT22;16339;48.748;2.222;2023-08-12T07:01:23;23.90;98.20
29345;DHT22;16339;48.748;2.222;2023-08-12T07:04:12;23.90;98.50
29345;DHT22;16339;48.748;2.222;2023-08-12T07:10:16;24.00;98.50
29345;DHT22;16339;48.748;2.222;2023-08-12T07:12:53;23.90;98.70
29345;DHT22;16339;48.748;2.222;2023-08-12T07:15:21;24.00;98.40
29345;DHT22;16339;48.748;2.222;2023-08-12T07:17:59;24.00;98.40
29345;DHT22;16339;48.748;2.222;2023-08-12T07:20:30;24.10;98.50
29345;DHT22;16339;48.748;2.222;2023-08-12T07:23:05;24.20;98.50
29345;DHT22;16339;48.748;2.222;2023-08-12T07:25:35;24.30;98.30
29345;DHT22;16339;48.748;2.222;2023-08-12T07:28:06;24.30;98.30
29345;DHT22;16339;48.748;2.222;2023-08-12T07:30:35;24.10;98.00
29345;DHT22;16339;48.748;2.222;2023-08-12T07:33:04;24.10;98.00
29345;DHT22;16339;48.748;2.222;2023-08-12T07:35:33;24.20;98.20
29345;DHT22;16339;48.748;2.222;2023-08-12T07:38:02;24.20;98.20
29345;DHT22;16339;48.748;2.222;2023-08-12T07:40:31;24.30;98.20
29345;DHT22;16339;48.748;2.222;2023-08-12T07:43:00;24.20;97.80
29345;DHT22;16339;48.748;2.222;2023-08-12T07:45:32;24.30;97.90
29345;DHT22;16339;48.748;2.222;2023-08-12T07:48:01;24.30;97.90
29345;DHT22;16339;48.748;2.222;2023-08-12T07:50:29;24.30;98.00
29345;DHT22;16339;48.748;2.222;2023-08-12T07:52:58;24.30;98.10
29345;DHT22;16339;48.748;2.222;2023-08-12T07:55:27;24.30;98.00
29345;DHT22;16339;48.748;2.222;2023-08-12T07:57:56;24.40;98.00
29345;DHT22;16339;48.748;2.222;2023-08-12T08:00:25;24.40;98.00
29345;DHT22;16339;48.748;2.222;2023-08-12T08:02:56;24.40;97.90
29345;DHT22;16339;48.748;2.222;2023-08-12T08:05:25;24.20;97.70
29345;DHT22;16339;48.748;2.222;2023-08-12T08:07:54;23.90;98.20
29345;DHT22;16339;48.748;2.222;2023-08-12T08:10:23;23.70;98.20
29345;DHT22;16339;48.748;2.222;2023-08-12T08:12:51;23.50;98.40
29345;DHT22;16339;48.748;2.222;2023-08-12T08:15:20;23.10;98.70
29345;DHT22;16339;48.748;2.222;2023-08-12T08:17:49;23.10;99.30
29345;DHT22;16339;48.748;2.222;2023-08-12T08:20:20;23.00;99.20
29345;DHT22;16339;48.748;2.222;2023-08-12T08:22:50;22.90;99.50
29345;DHT22;16339;48.748;2.222;2023-08-12T08:25:21;22.80;99.40
29345;DHT22;16339;48.748;2.222;2023-08-12T08:27:50;22.80;99.80
29345;DHT22;16339;48.748;2.222;2023-08-12T08:30:18;22.70;99.70
29345;DHT22;16339;48.748;2.222;2023-08-12T08:32:48;22.90;99.90
29345;DHT22;16339;48.748;2.222;2023-08-12T08:35:19;22.80;99.90
29345;DHT22;16339;48.748;2.222;2023-08-12T08:37:48;22.80;99.80
29345;DHT22;16339;48.748;2.222;2023-08-12T08:40:17;23.00;99.90
29345;DHT22;16339;48.748;2.222;2023-08-12T08:42:47;23.10;99.90
29345;DHT22;16339;48.748;2.222;2023-08-12T08:45:21;23.30;99.90
29345;DHT22;16339;48.748;2.222;2023-08-12T08:47:51;23.40;99.90
29345;DHT22;16339;48.748;2.222;2023-08-12T08:50:22;23.60;99.90
29345;DHT22;16339;48.748;2.222;2023-08-12T08:52:52;23.70;99.90
29345;DHT22;16339;48.748;2.222;2023-08-12T08:55:22;23.80;99.90
29345;DHT22;16339;48.748;2.222;2023-08-12T08:57:50;23.80;99.90
29345;DHT22;16339;48.748;2.222;2023-08-12T09:00:19;23.90;99.90
29345;DHT22;16339;48.748;2.222;2023-08-12T09:02:49;24.00;99.90
29345;DHT22;16339;48.748;2.222;2023-08-12T09:05:21;24.00;99.90
29345;DHT22;16339;48.748;2.222;2023-08-12T09:07:51;24.10;99.90
29345;DHT22;16339;48.748;2.222;2023-08-12T09:10:21;24.20;99.70
29345;DHT22;16339;48.748;2.222;2023-08-12T09:12:52;24.30;99.90
29345;DHT22;16339;48.748;2.222;2023-08-12T09:15:22;24.40;99.90
29345;DHT22;16339;48.748;2.222;2023-08-12T09:17:50;24.50;99.80
29345;DHT22;16339;48.748;2.222;2023-08-12T09:20:22;24.60;99.70
29345;DHT22;16339;48.748;2.222;2023-08-12T09:22:55;24.60;99.50
29345;DHT22;16339;48.748;2.222;2023-08-12T09:25:26;24.70;99.00
29345;DHT22;16339;48.748;2.222;2023-08-12T09:27:55;24.80;97.80
29345;DHT22;16339;48.748;2.222;2023-08-12T09:30:29;24.80;97.10
29345;DHT22;16339;48.748;2.222;2023-08-12T09:32:59;24.80;96.80
29345;DHT22;16339;48.748;2.222;2023-08-12T09:35:36;24.90;96.30
29345;DHT22;16339;48.748;2.222;2023-08-12T09:38:06;24.90;96.40
29345;DHT22;16339;48.748;2.222;2023-08-12T09:40:36;24.80;96.00
29345;DHT22;16339;48.748;2.222;2023-08-12T09:43:08;24.80;95.90
29345;DHT22;16339;48.748;2.222;2023-08-12T09:45:37;24.80;96.50
29345;DHT22;16339;48.748;2.222;2023-08-12T09:48:09;24.80;96.60
29345;DHT22;16339;48.748;2.222;2023-08-12T09:50:40;24.90;96.20
29345;DHT22;16339;48.748;2.222;2023-08-12T09:53:09;25.00;96.50
29345;DHT22;16339;48.748;2.222;2023-08-12T09:55:41;25.10;96.00
29345;DHT22;16339;48.748;2.222;2023-08-12T09:58:29;25.20;95.90
29345;DHT22;16339;48.748;2.222;2023-08-12T10:01:02;25.20;95.40
29345;DHT22;16339;48.748;2.222;2023-08-12T10:03:36;25.20;95.20
29345;DHT22;16339;48.748;2.222;2023-08-12T10:06:10;25.10;94.60
29345;DHT22;16339;48.748;2.222;2023-08-12T10:12:21;25.10;94.90
29345;DHT22;16339;48.748;2.222;2023-08-12T10:14:51;25.10;94.30
29345;DHT22;16339;48.748;2.222;2023-08-12T10:17:30;25.10;94.20
29345;DHT22;16339;48.748;2.222;2023-08-12T10:23:25;25.00;94.10
29345;DHT22;16339;48.748;2.222;2023-08-12T10:25:58;25.00;94.00
29345;DHT22;16339;48.748;2.222;2023-08-12T10:28:29;24.90;93.70
29345;DHT22;16339;48.748;2.222;2023-08-12T10:31:02;25.00;94.00
29345;DHT22;16339;48.748;2.222;2023-08-12T10:33:35;24.90;93.40
29345;DHT22;16339;48.748;2.222;2023-08-12T10:36:05;25.00;93.50
29345;DHT22;16339;48.748;2.222;2023-08-12T10:38:37;24.90;93.80
29345;DHT22;16339;48.748;2.222;2023-08-12T10:41:17;25.00;94.20
29345;DHT22;16339;48.748;2.222;2023-08-12T10:43:53;25.00;94.30
29345;DHT22;16339;48.748;2.222;2023-08-12T10:46:23;25.00;94.30
29345;DHT22;16339;48.748;2.222;2023-08-12T10:48:59;25.10;93.70
29345;DHT22;16339;48.748;2.222;2023-08-12T10:51:41;25.10;93.10
29345;DHT22;16339;48.748;2.222;2023-08-12T10:54:24;25.20;93.30
29345;DHT22;16339;48.748;2.222;2023-08-12T10:57:05;25.30;92.50
29345;DHT22;16339;48.748;2.222;2023-08-12T10:59:49;25.40;92.80
29345;DHT22;16339;48.748;2.222;2023-08-12T11:02:29;25.50;92.80
29345;DHT22;16339;48.748;2.222;2023-08-12T11:05:01;25.80;92.40
29345;DHT22;16339;48.748;2.222;2023-08-12T11:07:39;25.90;92.00
29345;DHT22;16339;48.748;2.222;2023-08-12T11:10:16;25.90;90.90
29345;DHT22;16339;48.748;2.222;2023-08-12T11:12:54;25.80;90.80
29345;DHT22;16339;48.748;2.222;2023-08-12T11:15:30;25.90;90.80
29345;DHT22;16339;48.748;2.222;2023-08-12T11:18:05;26.00;91.20
29345;DHT22;16339;48.748;2.222;2023-08-12T11:20:34;26.00;91.20
29345;DHT22;16339;48.748;2.222;2023-08-12T11:23:04;26.00;91.60
29345;DHT22;16339;48.748;2.222;2023-08-12T11:25:37;26.00;91.30
29345;DHT22;16339;48.748;2.222;2023-08-12T11:28:07;26.00;91.80
29345;DHT22;16339;48.748;2.222;2023-08-12T11:30:41;26.10;91.80
29345;DHT22;16339;48.748;2.222;2023-08-12T11:33:10;26.00;91.30
29345;DHT22;16339;48.748;2.222;2023-08-12T11:35:39;26.10;91.20
29345;DHT22;16339;48.748;2.222;2023-08-12T11:38:11;26.10;91.10
29345;DHT22;16339;48.748;2.222;2023-08-12T11:40:42;26.10;90.90
29345;DHT22;16339;48.748;2.222;2023-08-12T11:43:12;26.10;90.70
29345;DHT22;16339;48.748;2.222;2023-08-12T11:45:42;26.10;90.80
29345;DHT22;16339;48.748;2.222;2023-08-12T11:48:11;26.10;91.00
29345;DHT22;16339;48.748;2.222;2023-08-12T11:50:42;26.00;90.60
29345;DHT22;16339;48.748;2.222;2023-08-12T11:53:20;26.10;91.10
29345;DHT22;16339;48.748;2.222;2023-08-12T12:53:41;26.80;75.60
29345;DHT22;16339;48.748;2.222;2023-08-12T12:56:13;27.10;74.80
29345;DHT22;16339;48.748;2.222;2023-08-12T12:58:54;27.20;74.10
29345;DHT22;16339;48.748;2.222;2023-08-12T13:01:28;27.20;74.40
29345;DHT22;16339;48.748;2.222;2023-08-12T13:03:57;27.00;75.20
29345;DHT22;16339;48.748;2.222;2023-08-12T13:06:51;27.00;73.10
29345;DHT22;16339;48.748;2.222;2023-08-12T13:19:47;27.50;72.90
29345;DHT22;16339;48.748;2.222;2023-08-12T13:22:18;27.60;69.00
29345;DHT22;16339;48.748;2.222;2023-08-12T13:24:47;27.60;67.20
29345;DHT22;16339;48.748;2.222;2023-08-12T13:27:16;27.60;67.90
29345;DHT22;16339;48.748;2.222;2023-08-12T13:29:45;27.60;68.40
29345;DHT22;16339;48.748;2.222;2023-08-12T13:32:16;27.60;68.10
29345;DHT22;16339;48.748;2.222;2023-08-12T13:34:47;27.50;67.30
29345;DHT22;16339;48.748;2.222;2023-08-12T13:37:16;27.50;68.30
29345;DHT22;16339;48.748;2.222;2023-08-12T13:39:44;27.60;67.80
29345;DHT22;16339;48.748;2.222;2023-08-12T13:42:13;27.60;68.00
29345;DHT22;16339;48.748;2.222;2023-08-12T13:44:45;27.70;67.40
29345;DHT22;16339;48.748;2.222;2023-08-12T13:47:14;27.90;67.30
29345;DHT22;16339;48.748;2.222;2023-08-12T13:49:42;27.80;67.20
29345;DHT22;16339;48.748;2.222;2023-08-12T13:52:13;27.70;68.20
29345;DHT22;16339;48.748;2.222;2023-08-12T13:54:42;27.60;66.80
29345;DHT22;16339;48.748;2.222;2023-08-12T13:57:11;27.50;66.30
29345;DHT22;16339;48.748;2.222;2023-08-12T13:59:40;27.60;67.90
29345;DHT22;16339;48.748;2.222;2023-08-12T14:02:10;27.60;67.50
29345;DHT22;16339;48.748;2.222;2023-08-12T14:04:38;27.40;66.00
29345;DHT22;16339;48.748;2.222;2023-08-12T14:07:07;27.40;66.60
29345;DHT22;16339;48.748;2.222;2023-08-12T14:09:38;27.30;66.20
29345;DHT22;16339;48.748;2.222;2023-08-12T14:12:07;27.50;66.50
29345;DHT22;16339;48.748;2.222;2023-08-12T14:14:36;27.60;65.60
29345;DHT22;16339;48.748;2.222;2023-08-12T14:17:05;27.60;65.70
29345;DHT22;16339;48.748;2.222;2023-08-12T14:19:39;27.50;65.70
29345;DHT22;16339;48.748;2.222;2023-08-12T14:22:08;27.50;65.70
29345;DHT22;16339;48.748;2.222;2023-08-12T14:24:39;27.60;64.10
29345;DHT22;16339;48.748;2.222;2023-08-12T14:27:09;27.60;65.30
29345;DHT22;16339;48.748;2.222;2023-08-12T14:29:38;27.70;63.50
29345;DHT22;16339;48.748;2.222;2023-08-12T14:32:07;27.70;64.10
29345;DHT22;16339;48.748;2.222;2023-08-12T14:34:35;27.80;64.90
29345;DHT22;16339;48.748;2.222;2023-08-12T14:37:04;27.80;64.30
29345;DHT22;16339;48.748;2.222;2023-08-12T14:39:33;27.80;64.20
29345;DHT22;16339;48.748;2.222;2023-08-12T14:42:05;27.80;64.40
29345;DHT22;16339;48.748;2.222;2023-08-12T14:44:35;27.80;64.90
29345;DHT22;16339;48.748;2.222;2023-08-12T14:47:05;27.70;64.20
29345;DHT22;16339;48.748;2.222;2023-08-12T14:49:34;27.70;64.10
29345;DHT22;16339;48.748;2.222;2023-08-12T14:52:03;27.70;63.90
29345;DHT22;16339;48.748;2.222;2023-08-12T14:54:32;27.80;64.00
29345;DHT22;16339;48.748;2.222;2023-08-12T14:57:00;27.80;64.70
29345;DHT22;16339;48.748;2.222;2023-08-12T14:59:32;27.90;65.40
29345;DHT22;16339;48.748;2.222;2023-08-12T15:02:00;28.10;63.80
29345;DHT22;16339;48.748;2.222;2023-08-12T15:04:29;28.10;63.60
29345;DHT22;16339;48.748;2.222;2023-08-12T15:06:58;28.10;63.80
29345;DHT22;16339;48.748;2.222;2023-08-12T15:09:26;28.30;63.10
29345;DHT22;16339;48.748;2.222;2023-08-12T15:11:55;28.30;63.20
29345;DHT22;16339;48.748;2.222;2023-08-12T15:14:24;28.40;63.40
29345;DHT22;16339;48.748;2.222;2023-08-12T15:16:55;28.40;62.20
29345;DHT22;16339;48.748;2.222;2023-08-12T15:19:24;28.20;61.90
29345;DHT22;16339;48.748;2.222;2023-08-12T15:21:53;28.20;61.10
29345;DHT22;16339;48.748;2.222;2023-08-12T15:24:21;28.10;61.10
29345;DHT22;16339;48.748;2.222;2023-08-12T15:26:50;28.10;61.30
29345;DHT22;16339;48.748;2.222;2023-08-12T15:29:19;28.20;60.60
29345;DHT22;16339;48.748;2.222;2023-08-12T15:31:47;28.30;61.40
29345;DHT22;16339;48.748;2.222;2023-08-12T15:34:19;28.40;62.00
29345;DHT22;16339;48.748;2.222;2023-08-12T15:36:47;28.50;61.90
29345;DHT22;16339;48.748;2.222;2023-08-12T15:39:16;28.60;62.40
29345;DHT22;16339;48.748;2.222;2023-08-12T15:41:45;28.70;61.10
29345;DHT22;16339;48.748;2.222;2023-08-12T15:44:15;28.80;60.80
29345;DHT22;16339;48.748;2.222;2023-08-12T15:46:44;28.80;60.00
29345;DHT22;16339;48.748;2.222;2023-08-12T15:49:12;28.80;59.50
29345;DHT22;16339;48.748;2.222;2023-08-12T15:51:44;28.80;59.70
29345;DHT22;16339;48.748;2.222;2023-08-12T15:54:12;28.80;59.40
29345;DHT22;16339;48.748;2.222;2023-08-12T15:56:41;28.70;59.70
29345;DHT22;16339;48.748;2.222;2023-08-12T15:59:10;28.60;58.70
29345;DHT22;16339;48.748;2.222;2023-08-12T16:01:38;28.50;59.20
29345;DHT22;16339;48.748;2.222;2023-08-12T16:04:08;28.60;57.70
29345;DHT22;16339;48.748;2.222;2023-08-12T16:06:36;28.80;56.30
29345;DHT22;16339;48.748;2.222;2023-08-12T16:09:08;29.20;55.80
29345;DHT22;16339;48.748;2.222;2023-08-12T16:11:36;29.50;54.90
29345;DHT22;16339;48.748;2.222;2023-08-12T16:14:05;29.60;55.20
29345;DHT22;16339;48.748;2.222;2023-08-12T16:16:34;30.10;54.90
29345;DHT22;16339;48.748;2.222;2023-08-12T16:19:03;30.90;54.30
29345;DHT22;16339;48.748;2.222;2023-08-12T16:21:32;31.70;53.80
29345;DHT22;16339;48.748;2.222;2023-08-12T16:24:01;31.60;52.90
29345;DHT22;16339;48.748;2.222;2023-08-12T16:26:32;31.20;53.40
29345;DHT22;16339;48.748;2.222;2023-08-12T16:29:01;31.10;53.80
29345;DHT22;16339;48.748;2.222;2023-08-12T16:31:30;31.50;53.80
29345;DHT22;16339;48.748;2.222;2023-08-12T16:33:59;32.00;52.90
29345;DHT22;16339;48.748;2.222;2023-08-12T16:36:27;32.20;53.10
29345;DHT22;16339;48.748;2.222;2023-08-12T16:38:57;32.30;52.70
29345;DHT22;16339;48.748;2.222;2023-08-12T16:41:26;32.90;51.00
29345;DHT22;16339;48.748;2.222;2023-08-12T16:43:57;33.40;50.70
29345;DHT22;16339;48.748;2.222;2023-08-12T16:46:26;33.60;50.60
29345;DHT22;16339;48.748;2.222;2023-08-12T16:48:55;33.60;50.50
29345;DHT22;16339;48.748;2.222;2023-08-12T16:51:25;33.40;50.60
29345;DHT22;16339;48.748;2.222;2023-08-12T16:53:54;33.00;50.50
29345;DHT22;16339;48.748;2.222;2023-08-12T16:56:22;32.70;51.40
29345;DHT22;16339;48.748;2.222;2023-08-12T16:58:51;32.40;51.80
29345;DHT22;16339;48.748;2.222;2023-08-12T17:01:23;31.80;52.00
29345;DHT22;16339;48.748;2.222;2023-08-12T17:03:52;31.30;53.00
29345;DHT22;16339;48.748;2.222;2023-08-12T17:06:21;30.80;53.10
29345;DHT22;16339;48.748;2.222;2023-08-12T17:08:49;30.50;54.40
29345;DHT22;16339;48.748;2.222;2023-08-12T17:11:18;30.10;55.00
29345;DHT22;16339;48.748;2.222;2023-08-12T17:13:47;30.00;55.60
29345;DHT22;16339;48.748;2.222;2023-08-12T17:16:16;29.80;56.10
29345;DHT22;16339;48.748;2.222;2023-08-12T17:18:47;29.60;55.90
29345;DHT22;16339;48.748;2.222;2023-08-12T17:21:16;29.40;56.20
29345;DHT22;16339;48.748;2.222;2023-08-12T17:23:45;29.00;56.90
29345;DHT22;16339;48.748;2.222;2023-08-12T17:26:13;28.90;57.20
29345;DHT22;16339;48.748;2.222;2023-08-12T17:28:42;28.60;57.70
29345;DHT22;16339;48.748;2.222;2023-08-12T17:31:11;28.40;58.10
29345;DHT22;16339;48.748;2.222;2023-08-12T17:33:41;28.40;58.50
29345;DHT22;16339;48.748;2.222;2023-08-12T17:36:12;28.30;59.20
29345;DHT22;16339;48.748;2.222;2023-08-12T17:38:41;28.20;58.80
29345;DHT22;16339;48.748;2.222;2023-08-12T17:41:10;28.20;59.30
29345;DHT22;16339;48.748;2.222;2023-08-12T17:43:38;28.20;59.60
29345;DHT22;16339;48.748;2.222;2023-08-12T17:46:09;28.10;59.90
29345;DHT22;16339;48.748;2.222;2023-08-12T17:48:39;28.10;59.50
29345;DHT22;16339;48.748;2.222;2023-08-12T17:51:08;28.10;59.50
29345;DHT22;16339;48.748;2.222;2023-08-12T17:53:42;28.10;59.80
29345;DHT22;16339;48.748;2.222;2023-08-12T17:56:11;28.10;60.20
29345;DHT22;16339;48.748;2.222;2023-08-12T17:58:40;28.10;60.30
29345;DHT22;16339;48.748;2.222;2023-08-12T18:01:08;28.20;60.60
29345;DHT22;16339;48.748;2.222;2023-08-12T18:03:38;28.20;60.50
29345;DHT22;16339;48.748;2.222;2023-08-12T18:06:07;28.10;61.10
29345;DHT22;16339;48.748;2.222;2023-08-12T18:08:37;28.00;61.60
29345;DHT22;16339;48.748;2.222;2023-08-12T18:11:08;28.00;60.80
29345;DHT22;16339;48.748;2.222;2023-08-12T18:13:37;28.00;61.10
29345;DHT22;16339;48.748;2.222;2023-08-12T18:16:06;27.90;61.60
29345;DHT22;16339;48.748;2.222;2023-08-12T18:18:34;27.80;61.60
29345;DHT22;16339;48.748;2.222;2023-08-12T18:21:03;27.70;61.90
29345;DHT22;16339;48.748;2.222;2023-08-12T18:23:32;27.50;63.00
29345;DHT22;16339;48.748;2.222;2023-08-12T18:26:00;27.40;63.20
29345;DHT22;16339;48.748;2.222;2023-08-12T18:28:32;27.40;63.60
29345;DHT22;16339;48.748;2.222;2023-08-12T18:31:01;27.30;63.40
29345;DHT22;16339;48.748;2.222;2023-08-12T18:33:29;27.30;63.90
29345;DHT22;16339;48.748;2.222;2023-08-12T18:35:58;27.30;66.20
29345;DHT22;16339;48.748;2.222;2023-08-12T18:38:27;27.20;67.20
29345;DHT22;16339;48.748;2.222;2023-08-12T18:41:15;27.10;66.50
29345;DHT22;16339;48.748;2.222;2023-08-12T18:43:50;27.10;69.40
29345;DHT22;16339;48.748;2.222;2023-08-12T18:46:19;27.00;71.60
29345;DHT22;16339;48.748;2.222;2023-08-12T18:48:48;26.80;71.90
29345;DHT22;16339;48.748;2.222;2023-08-12T18:51:16;26.70;71.80
29345;DHT22;16339;48.748;2.222;2023-08-12T18:53:46;26.60;72.50
29345;DHT22;16339;48.748;2.222;2023-08-12T18:56:14;26.50;73.30
29345;DHT22;16339;48.748;2.222;2023-08-12T18:58:43;26.40;72.80
29345;DHT22;16339;48.748;2.222;2023-08-12T19:01:14;26.30;73.30
29345;DHT22;16339;48.748;2.222;2023-08-12T19:03:43;26.20;74.10
29345;DHT22;16339;48.748;2.222;2023-08-12T19:06:12;26.10;74.40
29345;DHT22;16339;48.748;2.222;2023-08-12T19:08:41;25.90;75.20
29345;DHT22;16339;48.748;2.222;2023-08-12T19:11:10;25.90;75.00
29345;DHT22;16339;48.748;2.222;2023-08-12T19:13:39;25.80;75.50
29345;DHT22;16339;48.748;2.222;2023-08-12T19:16:08;25.80;75.70
29345;DHT22;16339;48.748;2.222;2023-08-12T19:18:39;25.70;76.30
29345;DHT22;16339;48.748;2.222;2023-08-12T19:21:08;25.60;76.60
29345;DHT22;16339;48.748;2.222;2023-08-12T19:23:36;25.60;77.20
29345;DHT22;16339;48.748;2.222;2023-08-12T19:26:05;25.50;77.10
29345;DHT22;16339;48.748;2.222;2023-08-12T19:28:34;25.50;77.20
29345;DHT22;16339;48.748;2.222;2023-08-12T19:31:03;25.50;77.30
29345;DHT22;16339;48.748;2.222;2023-08-12T19:33:31;25.50;76.30
29345;DHT22;16339;48.748;2.222;2023-08-12T19:36:03;25.30;76.10
29345;DHT22;16339;48.748;2.222;2023-08-12T19:38:32;25.20;76.90
29345;DHT22;16339;48.748;2.222;2023-08-12T19:41:01;25.20;77.40
29345;DHT22;16339;48.748;2.222;2023-08-12T19:43:30;25.10;77.80
29345;DHT22;16339;48.748;2.222;2023-08-12T19:45:59;25.10;78.10
29345;DHT22;16339;48.748;2.222;2023-08-12T19:48:27;25.00;77.60
29345;DHT22;16339;48.748;2.222;2023-08-12T19:50:56;25.00;77.80
29345;DHT22;16339;48.748;2.222;2023-08-12T19:53:27;24.90;78.30
29345;DHT22;16339;48.748;2.222;2023-08-12T19:55:56;24.90;79.10
29345;DHT22;16339;48.748;2.222;2023-08-12T19:58:25;24.90;79.20
29345;DHT22;16339;48.748;2.222;2023-08-12T20:00:54;25.00;78.60
29345;DHT22;16339;48.748;2.222;2023-08-12T20:03:23;24.90;78.60
29345;DHT22;16339;48.748;2.222;2023-08-12T20:05:52;24.90;78.50
29345;DHT22;16339;48.748;2.222;2023-08-12T20:08:20;24.90;78.70
29345;DHT22;16339;48.748;2.222;2023-08-12T20:10:54;24.90;78.30
29345;DHT22;16339;48.748;2.222;2023-08-12T20:13:23;24.80;78.50
29345;DHT22;16339;48.748;2.222;2023-08-12T20:15:51;24.70;79.10
29345;DHT22;16339;48.748;2.222;2023-08-12T20:18:23;24.70;79.10
29345;DHT22;16339;48.748;2.222;2023-08-12T20:20:52;24.60;79.40
29345;DHT22;16339;48.748;2.222;2023-08-12T20:23:21;24.60;79.80
29345;DHT22;16339;48.748;2.222;2023-08-12T20:25:52;24.50;80.00
29345;DHT22;16339;48.748;2.222;2023-08-12T20:28:21;24.50;79.90
29345;DHT22;16339;48.748;2.222;2023-08-12T20:30:50;24.60;80.50
29345;DHT22;16339;48.748;2.222;2023-08-12T20:33:19;24.60;80.60
29345;DHT22;16339;48.748;2.222;2023-08-12T20:35:47;24.50;79.90
29345;DHT22;16339;48.748;2.222;2023-08-12T20:38:16;24.50;79.80
29345;DHT22;16339;48.748;2.222;2023-08-12T20:40:45;24.50;80.30
29345;DHT22;16339;48.748;2.222;2023-08-12T20:43:17;24.40;80.10
29345;DHT22;16339;48.748;2.222;2023-08-12T20:45:45;24.40;80.40
29345;DHT22;16339;48.748;2.222;2023-08-12T20:48:14;24.40;80.80
29345;DHT22;16339;48.748;2.222;2023-08-12T20:50:43;24.30;81.00
29345;DHT22;16339;48.748;2.222;2023-08-12T20:53:11;24.30;81.60
29345;DHT22;16339;48.748;2.222;2023-08-12T20:55:41;24.30;81.60
29345;DHT22;16339;48.748;2.222;2023-08-12T20:58:09;24.30;81.40
29345;DHT22;16339;48.748;2.222;2023-08-12T21:00:43;24.30;81.30
29345;DHT22;16339;48.748;2.222;2023-08-12T21:03:11;24.20;81.50
29345;DHT22;16339;48.748;2.222;2023-08-12T21:05:47;24.30;81.70
29345;DHT22;16339;48.748;2.222;2023-08-12T21:08:16;24.30;81.60
29345;DHT22;16339;48.748;2.222;2023-08-12T21:10:50;24.30;81.70
29345;DHT22;16339;48.748;2.222;2023-08-12T21:13:19;24.30;81.80
29345;DHT22;16339;48.748;2.222;2023-08-12T21:15:51;24.20;81.60
29345;DHT22;16339;48.748;2.222;2023-08-12T21:18:19;24.20;82.20
29345;DHT22;16339;48.748;2.222;2023-08-12T21:20:48;24.10;82.00
29345;DHT22;16339;48.748;2.222;2023-08-12T21:23:17;24.10;82.30
29345;DHT22;16339;48.748;2.222;2023-08-12T21:25:46;24.00;82.30
29345;DHT22;16339;48.748;2.222;2023-08-12T21:28:15;24.00;82.70
29345;DHT22;16339;48.748;2.222;2023-08-12T21:30:43;23.90;82.90
29345;DHT22;16339;48.748;2.222;2023-08-12T21:33:15;23.90;83.00
29345;DHT22;16339;48.748;2.222;2023-08-12T21:35:44;23.90;82.80
29345;DHT22;16339;48.748;2.222;2023-08-12T21:38:12;23.90;83.00
29345;DHT22;16339;48.748;2.222;2023-08-12T21:40:41;23.90;82.90
29345;DHT22;16339;48.748;2.222;2023-08-12T21:43:10;23.90;83.20
29345;DHT22;16339;48.748;2.222;2023-08-12T21:45:38;23.90;83.70
29345;DHT22;16339;48.748;2.222;2023-08-12T21:48:07;23.90;82.70
29345;DHT22;16339;48.748;2.222;2023-08-12T21:50:39;23.80;82.90
29345;DHT22;16339;48.748;2.222;2023-08-12T21:53:07;23.80;83.20
29345;DHT22;16339;48.748;2.222;2023-08-12T21:55:36;23.80;83.10
29345;DHT22;16339;48.748;2.222;2023-08-12T21:58:05;23.80;83.10
29345;DHT22;16339;48.748;2.222;2023-08-12T22:00:33;23.80;83.00
29345;DHT22;16339;48.748;2.222;2023-08-12T22:03:03;23.70;83.10
29345;DHT22;16339;48.748;2.222;2023-08-12T22:05:32;23.70;83.40
29345;DHT22;16339;48.748;2.222;2023-08-12T22:08:03;23.60;83.80
29345;DHT22;16339;48.748;2.222;2023-08-12T22:10:32;23.60;83.80
29345;DHT22;16339;48.748;2.222;2023-08-12T22:13:01;23.60;84.00
29345;DHT22;16339;48.748;2.222;2023-08-12T22:15:30;23.50;84.00
29345;DHT22;16339;48.748;2.222;2023-08-12T22:17:59;23.50;84.30
29345;DHT22;16339;48.748;2.222;2023-08-12T22:20:28;23.60;84.30
29345;DHT22;16339;48.748;2.222;2023-08-12T22:22:56;23.50;84.00
29345;DHT22;16339;48.748;2.222;2023-08-12T22:25:28;23.50;84.00
29345;DHT22;16339;48.748;2.222;2023-08-12T22:27:57;23.50;84.20
29345;DHT22;16339;48.748;2.222;2023-08-12T22:30:25;23.60;84.10
29345;DHT22;16339;48.748;2.222;2023-08-12T22:32:54;23.50;84.10
29345;DHT22;16339;48.748;2.222;2023-08-12T22:35:23;23.50;83.70
29345;DHT22;16339;48.748;2.222;2023-08-12T22:37:51;23.50;83.90
29345;DHT22;16339;48.748;2.222;2023-08-12T22:40:20;23.40;84.20
29345;DHT22;16339;48.748;2.222;2023-08-12T22:42:51;23.40;84.70
29345;DHT22;16339;48.748;2.222;2023-08-12T22:45:20;23.30;84.90
29345;DHT22;16339;48.748;2.222;2023-08-12T22:47:49;23.30;85.10
29345;DHT22;16339;48.748;2.222;2023-08-12T22:50:18;23.30;85.00
29345;DHT22;16339;48.748;2.222;2023-08-12T22:52:47;23.20;85.10
29345;DHT22;16339;48.748;2.222;2023-08-12T22:55:16;23.10;85.70
29345;DHT22;16339;48.748;2.222;2023-08-12T22:57:45;23.10;86.00
29345;DHT22;16339;48.748;2.222;2023-08-12T23:00:17;23.10;86.00
29345;DHT22;16339;48.748;2.222;2023-08-12T23:02:46;23.00;85.80
29345;DHT22;16339;48.748;2.222;2023-08-12T23:05:14;23.00;85.80
29345;DHT22;16339;48.748;2.222;2023-08-12T23:07:43;23.00;85.80
29345;DHT22;16339;48.748;2.222;2023-08-12T23:10:12;23.00;85.60
29345;DHT22;16339;48.748;2.222;2023-08-12T23:12:43;22.90;85.70
29345;DHT22;16339;48.748;2.222;2023-08-12T23:15:11;23.00;85.90
29345;DHT22;16339;48.748;2.222;2023-08-12T23:17:43;22.90;85.90
29345;DHT22;16339;48.748;2.222;2023-08-12T23:20:11;22.90;86.60
29345;DHT22;16339;48.748;2.222;2023-08-12T23:22:40;22.90;86.70
29345;DHT22;16339;48.748;2.222;2023-08-12T23:25:09;22.90;86.70
29345;DHT22;16339;48.748;2.222;2023-08-12T23:27:38;23.00;87.00
29345;DHT22;16339;48.748;2.222;2023-08-12T23:30:07;23.00;86.90
29345;DHT22;16339;48.748;2.222;2023-08-12T23:32:42;23.10;86.90
29345;DHT22;16339;48.748;2.222;2023-08-12T23:35:12;23.10;87.20
29345;DHT22;16339;48.748;2.222;2023-08-12T23:37:43;23.10;87.00
29345;DHT22;16339;48.748;2.222;2023-08-12T23:40:12;23.10;86.80
29345;DHT22;16339;48.748;2.222;2023-08-12T23:42:41;23.10;86.60
29345;DHT22;16339;48.748;2.222;2023-08-12T23:45:11;23.10;86.90
29345;DHT22;16339;48.748;2.222;2023-08-12T23:47:42;23.10;86.70
29345;DHT22;16339;48.748;2.222;2023-08-12T23:50:10;23.00;86.70
29345;DHT22;16339;48.748;2.222;2023-08-12T23:52:39;23.00;86.80
29345;DHT22;16339;48.748;2.222;2023-08-12T23:55:08;23.00;86.70
29345;DHT22;16339;48.748;2.222;2023-08-12T23:57:37;23.00;86.70
